Flight Track Log - Related Links

Times and Time Zones

All times are in EST time to prevent confusion due to time zone crossing. See the UAL1583 flight status page for this flight to view local times or setup timezone preferences in your user account.

Time Position Orientation Groundspeed Altitude Reporting Facility
EST Latitude Longitude Course Direction KTS MPH feet Rate Location/Type
Sun 02:47:59 PM 40.6333 -74.2000 246° West 221 254 2,100  Level New York TRACON
Sun 02:49:05 PM 40.6167 -74.3000 258° West 257 296 4,700 2,714 Climbing New York TRACON
Sun 02:50:05 PM 40.6333 -74.4000 282° West 260 299 7,800 2,817 Climbing New York TRACON
Sun 02:51:00 PM 40.7916 -74.8329 237° Southwest  Level Estimated
Sun 02:51:00 PM 40.6333 -74.4833 270° West 269 310 10,100  Level New York TRACON
Sun 02:52:00 PM 40.8110 -74.9660 237° Southwest  Level Estimated
Sun 02:52:51 PM 40.6536 -74.6689 278° West 306 352 12,700  Level New York Center
Sun 02:53:00 PM 40.8302 -75.0991 246° West  Level Estimated
Sun 02:53:51 PM 40.6653 -74.8119 276° West 348 400 14,500  Level New York Center
Sun 02:54:51 PM 40.6731 -74.9464 274° West 373 429 16,600 1,850 Climbing New York Center
Sun 02:55:51 PM 40.6767 -75.0836 272° West 378 435 18,200 1,650 Climbing New York Center
Sun 02:56:51 PM 40.6242 -75.2058 241° Southwest 372 428 19,900 1,650 Climbing New York Center
Sun 02:57:51 PM 40.5694 -75.3308 240° Southwest 383 441 21,500 1,550 Climbing New York Center
Sun 02:58:51 PM 40.5103 -75.4553 238° Southwest 395 455 23,000 1,450 Climbing New York Center
Sun 02:59:51 PM 40.4531 -75.5850 240° Southwest 408 470 24,400 1,200 Climbing New York Center
Sun 03:00:51 PM 40.3911 -75.7197 239° Southwest 419 482 25,400 950 Climbing New York Center
Sun 03:01:51 PM 40.3314 -75.8517 239° Southwest 419 482 26,300 850 Climbing New York Center
Sun 03:02:51 PM 40.2744 -75.9617 236° Southwest 435 501 27,100 1,050 Climbing New York Center
Sun 03:03:51 PM 40.2100 -76.0956 238° Southwest 448 516 28,400 1,400 Climbing New York Center
Sun 03:04:51 PM 40.1383 -76.2503 239° Southwest 441 507 29,900 1,350 Climbing New York Center
Sun 03:05:51 PM 40.0781 -76.3811 239° Southwest 428 493 31,100 1,350 Climbing New York Center
Sun 03:06:51 PM 40.0219 -76.5094 240° Southwest 417 480 32,600 1,450 Climbing New York Center
Sun 03:07:51 PM 39.9636 -76.6319 238° Southwest 412 474 34,000 700 Climbing New York Center
Sun 03:08:51 PM 39.9100 -76.7494 239° Southwest 402 463 34,000  Level New York Center
Sun 03:09:51 PM 39.8561 -76.8636 238° Southwest 390 449 34,000  Level New York Center
Sun 03:10:51 PM 39.8019 -76.9808 239° Southwest 385 443 34,000  Level New York Center
Sun 03:11:25 PM 39.7694 -77.0411 235° Southwest 368 423 34,000  Level Washington Center
Sun 03:12:25 PM 39.7161 -77.1561 239° Southwest 361 415 34,000  Level Washington Center
Sun 03:13:23 PM 39.6625 -77.2708 239° Southwest 366 421 34,000  Level Washington Center
Sun 03:14:23 PM 39.6067 -77.3853 238° Southwest 371 427 34,000  Level Washington Center
Sun 03:15:24 PM 39.5528 -77.4997 239° Southwest 371 427 34,000  Level Washington Center
Sun 03:16:24 PM 39.4989 -77.6139 239° Southwest 377 434 34,000  Level Washington Center
Sun 03:17:24 PM 39.4447 -77.7281 238° Southwest 383 441 34,000  Level Washington Center
Sun 03:18:25 PM 39.3883 -77.8444 238° Southwest 383 441 34,000  Level Washington Center
Sun 03:19:26 PM 39.3381 -77.9664 242° Southwest 383 441 34,000  Level Washington Center
Sun 03:20:23 PM 39.2919 -78.0883 244° Southwest 378 435 34,000  Level Washington Center
Sun 03:21:25 PM 39.2433 -78.2100 243° Southwest 378 435 34,000  Level Washington Center
Sun 03:22:25 PM 39.1928 -78.3367 243° Southwest 388 447 34,000  Level Washington Center
Sun 03:23:23 PM 39.1419 -78.4578 242° Southwest 388 447 34,000  Level Washington Center
Sun 03:24:24 PM 39.1075 -78.5928 252° West 388 447 34,000  Level Washington Center
Sun 03:25:25 PM 39.0839 -78.6989 254° West 393 452 34,000  Level Washington Center
Sun 03:26:26 PM 39.0483 -78.8578 254° West 393 452 34,000  Level Washington Center
Sun 03:27:23 PM 39.0197 -78.9928 255° West 393 452 34,000  Level Washington Center
Sun 03:28:24 PM 38.9867 -79.1247 252° West 393 452 34,000  Level Washington Center
Sun 03:29:24 PM 38.9575 -79.2594 254° West 393 452 34,000  Level Washington Center
Sun 03:30:25 PM 38.9283 -79.3917 254° West 393 452 34,000  Level Washington Center
Sun 03:31:25 PM 38.8972 -79.5206 253° West 393 452 34,000  Level Washington Center
Sun 03:32:23 PM 38.8697 -79.6553 255° West 393 452 34,000  Level Washington Center
Sun 03:33:24 PM 38.8400 -79.7894 254° West 393 452 34,000  Level Washington Center
Sun 03:34:57 PM 38.8164 -79.9769 261° West 386 444 34,000  Level Indianapolis Center
Sun 03:35:58 PM 38.8078 -80.1142 265° West 386 444 34,000  Level Indianapolis Center
Sun 03:37:00 PM 38.7989 -80.2522 265° West 388 447 34,000  Level Indianapolis Center
Sun 03:38:01 PM 38.7889 -80.3900 265° West 387 445 34,000  Level Indianapolis Center
Sun 03:39:03 PM 38.7775 -80.5533 265° West 383 441 34,000  Level Indianapolis Center
Sun 03:40:04 PM 38.7678 -80.6894 265° West 383 441 34,000  Level Indianapolis Center
Sun 03:41:06 PM 38.7575 -80.8233 264° West 379 436 34,000  Level Indianapolis Center
Sun 03:42:07 PM 38.7483 -80.9558 265° West 375 432 34,000  Level Indianapolis Center
Sun 03:43:09 PM 38.7378 -81.0894 264° West 376 433 34,000  Level Indianapolis Center
Sun 03:44:10 PM 38.7278 -81.2239 265° West 378 435 34,000  Level Indianapolis Center
Sun 03:45:11 PM 38.7175 -81.3567 264° West 375 432 34,000  Level Indianapolis Center
Sun 03:46:13 PM 38.7061 -81.4956 264° West 380 437 34,000  Level Indianapolis Center
Sun 03:47:14 PM 38.6947 -81.6528 265° West 380 437 34,000  Level Indianapolis Center
Sun 03:48:16 PM 38.6836 -81.7778 264° West 386 444 34,000  Level Indianapolis Center
Sun 03:49:17 PM 38.6725 -81.9147 264° West 386 444 34,000  Level Indianapolis Center
Sun 03:50:19 PM 38.6611 -82.0489 264° West 381 438 34,000  Level Indianapolis Center
Sun 03:51:20 PM 38.6494 -82.1858 264° West 384 442 34,000  Level Indianapolis Center
Sun 03:52:22 PM 38.6372 -82.3225 264° West 387 445 34,000  Level Indianapolis Center
Sun 03:53:23 PM 38.6228 -82.4861 264° West 387 445 34,000  Level Indianapolis Center
Sun 03:54:24 PM 38.6119 -82.6081 264° West 391 450 34,000  Level Indianapolis Center
Sun 03:55:26 PM 38.5975 -82.7678 263° West 390 449 34,000  Level Indianapolis Center
Sun 03:56:27 PM 38.5847 -82.9050 263° West 389 448 34,000  Level Indianapolis Center
Sun 03:57:29 PM 38.5719 -83.0397 263° West 384 442 34,000  Level Indianapolis Center
Sun 03:58:30 PM 38.5589 -83.1739 263° West 382 440 34,000  Level Indianapolis Center
Sun 03:59:31 PM 38.5467 -83.3081 263° West 382 440 34,000  Level Indianapolis Center
Sun 04:00:33 PM 38.5344 -83.4400 263° West 377 434 34,000  Level Indianapolis Center
Sun 04:01:34 PM 38.5211 -83.5739 263° West 380 437 34,000  Level Indianapolis Center
Sun 04:02:36 PM 38.5086 -83.7058 263° West 375 432 34,000  Level Indianapolis Center
Sun 04:03:37 PM 38.4922 -83.8617 262° West 380 437 34,000  Level Indianapolis Center
Sun 04:04:39 PM 38.4794 -83.9931 263° West 376 433 34,000  Level Indianapolis Center
Sun 04:05:40 PM 38.4658 -84.1236 262° West 375 432 34,000  Level Indianapolis Center
Sun 04:06:41 PM 38.4522 -84.2544 262° West 373 429 34,000  Level Indianapolis Center
Sun 04:07:43 PM 38.4386 -84.3869 263° West 375 432 34,000  Level Indianapolis Center
Sun 04:08:44 PM 38.4239 -84.5175 262° West 374 430 34,000  Level Indianapolis Center
Sun 04:09:46 PM 38.4114 -84.6483 263° West 372 428 34,000  Level Indianapolis Center
Sun 04:10:47 PM 38.3939 -84.7986 262° West 369 425 34,000  Level Indianapolis Center
Sun 04:11:48 PM 38.3797 -84.9294 262° West 371 427 34,000  Level Indianapolis Center
Sun 04:12:50 PM 38.3664 -85.0572 262° West 368 423 34,000  Level Indianapolis Center
Sun 04:13:51 PM 38.3511 -85.1869 261° West 369 425 34,000  Level Indianapolis Center
Sun 04:14:53 PM 38.3364 -85.3206 262° West 369 425 34,000  Level Indianapolis Center
Sun 04:15:54 PM 38.3228 -85.4503 262° West 368 423 34,000  Level Indianapolis Center
Sun 04:16:56 PM 38.3056 -85.5803 260° West 369 425 34,000  Level Indianapolis Center
Sun 04:17:57 PM 38.2917 -85.7086 262° West 367 422 34,000  Level Indianapolis Center
Sun 04:18:59 PM 38.2772 -85.8389 262° West 368 423 34,000  Level Indianapolis Center
Sun 04:20:00 PM 38.2622 -85.9692 262° West 372 428 34,000  Level Indianapolis Center
Sun 04:21:02 PM 38.2458 -86.0989 261° West 371 427 34,000  Level Indianapolis Center
Sun 04:22:03 PM 38.2306 -86.2264 261° West 364 419 34,000  Level Indianapolis Center
Sun 04:23:05 PM 38.2147 -86.3561 261° West 367 422 34,000  Level Indianapolis Center
Sun 04:24:07 PM 38.1961 -86.5072 261° West 361 415 34,000  Level Indianapolis Center
Sun 04:25:08 PM 38.1808 -86.6333 261° West 358 412 34,000  Level Indianapolis Center
Sun 04:26:10 PM 38.1647 -86.7594 261° West 358 412 34,000  Level Indianapolis Center
Sun 04:27:11 PM 38.1497 -86.8831 261° West 352 405 34,000  Level Indianapolis Center
Sun 04:28:13 PM 38.1325 -87.0078 260° West 352 405 34,000  Level Indianapolis Center
Sun 04:29:14 PM 38.1164 -87.1372 261° West 362 417 34,000  Level Indianapolis Center
Sun 04:30:16 PM 38.1000 -87.2653 261° West 362 417 34,000  Level Indianapolis Center
Sun 04:31:18 PM 38.0836 -87.3908 261° West 358 412 34,000  Level Indianapolis Center
Sun 04:32:19 PM 38.0669 -87.5153 260° West 355 409 34,000  Level Indianapolis Center
Sun 04:33:21 PM 38.0511 -87.6394 261° West 354 407 34,000  Level Indianapolis Center
Sun 04:34:22 PM 38.0333 -87.7650 260° West 358 412 34,000  Level Indianapolis Center
Sun 04:35:24 PM 38.0172 -87.8889 261° West 356 410 34,000  Level Indianapolis Center
Sun 04:36:26 PM 38.0003 -88.0139 260° West 355 409 34,000  Level Indianapolis Center
Sun 04:37:27 PM 37.9817 -88.1394 259° West 360 414 34,000  Level Indianapolis Center
Sun 04:38:29 PM 37.9650 -88.2650 260° West 359 413 34,000  Level Indianapolis Center
Sun 04:39:28 PM 37.9481 -88.3900 260° West 360 414 34,000  Level Kansas City Center
Sun 04:40:30 PM 37.9258 -88.5411 259° West 361 415 34,000  Level Kansas City Center
Sun 04:41:32 PM 37.9089 -88.6681 260° West 363 418 34,000  Level Kansas City Center
Sun 04:42:34 PM 37.8900 -88.7961 259° West 365 420 34,000  Level Kansas City Center
Sun 04:43:36 PM 37.8708 -88.9217 259° West 365 420 34,000 97 Level Kansas City Center
Sun 04:44:38 PM 37.8514 -89.0578 260° West 363 418 34,200 677 Climbing Kansas City Center
Sun 04:45:40 PM 37.8333 -89.1789 259° West 355 409 35,400 871 Climbing Kansas City Center
Sun 04:46:42 PM 37.8175 -89.2897 260° West 348 400 36,000 290 Climbing Kansas City Center
Sun 04:47:44 PM 37.8008 -89.4061 260° West 346 398 36,000  Level Kansas City Center
Sun 04:48:47 PM 37.7767 -89.5533 258° West 352 405 36,000  Level Kansas City Center
Sun 04:49:49 PM 37.7583 -89.6772 259° West 355 409 36,000  Level Kansas City Center
Sun 04:50:51 PM 37.7406 -89.8006 260° West 357 411 36,000  Level Kansas City Center
Sun 04:51:53 PM 37.7214 -89.9239 259° West 357 411 36,000  Level Kansas City Center
Sun 04:52:55 PM 37.7008 -90.0486 258° West 358 412 36,000  Level Kansas City Center
Sun 04:53:57 PM 37.6819 -90.1733 259° West 360 414 36,000  Level Kansas City Center
Sun 04:54:59 PM 37.6633 -90.3228 261° West 360 414 36,000  Level Kansas City Center
Sun 04:56:01 PM 37.6531 -90.4469 264° West 358 412 36,000  Level Kansas City Center
Sun 04:57:03 PM 37.6414 -90.5708 263° West 356 410 36,000  Level Kansas City Center
Sun 04:58:05 PM 37.6297 -90.6961 263° West 358 412 36,000  Level Kansas City Center
Sun 04:59:07 PM 37.6175 -90.8303 263° West 354 407 36,000  Level Kansas City Center
Sun 05:00:09 PM 37.6044 -90.9614 263° West 354 407 36,000  Level Kansas City Center
Sun 05:01:11 PM 37.5939 -91.0781 264° West 355 409 36,000  Level Kansas City Center
Sun 05:02:13 PM 37.5808 -91.2006 262° West 354 407 36,000  Level Kansas City Center
Sun 05:03:15 PM 37.5700 -91.3219 264° West 349 402 36,000  Level Kansas City Center
Sun 05:04:17 PM 37.5550 -91.4692 263° West 351 404 36,000  Level Kansas City Center
Sun 05:05:19 PM 37.5419 -91.5903 262° West 348 400 36,000  Level Kansas City Center
Sun 05:06:21 PM 37.5311 -91.7117 264° West 348 400 36,000  Level Kansas City Center
Sun 05:07:23 PM 37.5189 -91.8317 263° West 345 397 36,000  Level Kansas City Center
Sun 05:08:25 PM 37.5058 -91.9508 262° West 343 395 36,000  Level Kansas City Center
Sun 05:09:27 PM 37.4936 -92.0703 263° West 342 394 36,000  Level Kansas City Center
Sun 05:10:29 PM 37.4817 -92.1917 263° West 343 395 36,000  Level Kansas City Center
Sun 05:11:31 PM 37.4692 -92.3131 263° West 347 399 36,000  Level Kansas City Center
Sun 05:12:33 PM 37.4531 -92.4589 262° West 347 399 36,000  Level Kansas City Center
Sun 05:13:36 PM 37.4397 -92.5800 262° West 347 399 36,000  Level Kansas City Center
Sun 05:14:38 PM 37.4272 -92.7008 263° West 346 398 36,000  Level Kansas City Center
Sun 05:15:40 PM 37.4144 -92.8211 262° West 346 398 36,000  Level Kansas City Center
Sun 05:16:42 PM 37.4003 -92.9411 262° West 345 397 36,000  Level Kansas City Center
Sun 05:17:44 PM 37.3864 -93.0617 262° West 346 398 36,000  Level Kansas City Center
Sun 05:18:46 PM 37.3731 -93.1814 262° West 346 398 36,000  Level Kansas City Center
Sun 05:19:48 PM 37.3592 -93.3008 262° West 344 396 36,000  Level Kansas City Center
Sun 05:20:50 PM 37.3672 -93.4442 274° West 345 397 36,000  Level Kansas City Center
Sun 05:21:52 PM 37.3806 -93.5642 278° West 343 395 36,000  Level Kansas City Center
Sun 05:22:54 PM 37.3947 -93.6831 279° West 342 394 36,000  Level Kansas City Center
Sun 05:23:56 PM 37.4072 -93.8017 278° West 342 394 36,000  Level Kansas City Center
Sun 05:24:58 PM 37.4189 -93.9208 277° West 342 394 36,000  Level Kansas City Center
Sun 05:26:00 PM 37.4314 -94.0419 277° West 346 398 36,000  Level Kansas City Center
Sun 05:27:02 PM 37.4461 -94.1833 278° West 346 398 36,000  Level Kansas City Center
Sun 05:28:04 PM 37.4592 -94.3031 278° West 347 399 36,000  Level Kansas City Center
Sun 05:29:06 PM 37.4731 -94.4247 278° West 348 400 36,000  Level Kansas City Center
Sun 05:30:08 PM 37.5169 -94.5347 297° West 352 405 36,000  Level Kansas City Center
Sun 05:31:10 PM 37.5786 -94.6325 309° West 361 415 36,000  Level Kansas City Center
Sun 05:32:12 PM 37.6661 -94.7083 326° Northwest 378 435 36,000  Level Kansas City Center
Sun 05:33:14 PM 37.7372 -94.8228 308° West 363 418 36,000  Level Kansas City Center
Sun 05:34:17 PM 37.7414 -94.9369 273° West 343 395 36,000  Level Kansas City Center
Sun 05:35:19 PM 37.7433 -95.0733 271° West 345 397 36,000  Level Kansas City Center
Sun 05:36:21 PM 37.7444 -95.1892 271° West 345 397 36,000  Level Kansas City Center
Sun 05:37:23 PM 37.7453 -95.3117 271° West 346 398 36,000  Level Kansas City Center
Sun 05:38:25 PM 37.7467 -95.4347 271° West 348 400 36,000  Level Kansas City Center
Sun 05:39:27 PM 37.7478 -95.5842 271° West 353 406 36,000  Level Kansas City Center
Sun 05:40:29 PM 37.7483 -95.7069 270° West 351 404 36,000  Level Kansas City Center
Sun 05:41:31 PM 37.7497 -95.8322 271° West 355 409 36,000  Level Kansas City Center
Sun 05:42:33 PM 37.7494 -95.9564 270° West 355 409 36,000  Level Kansas City Center
Sun 05:43:35 PM 37.7503 -96.0789 271° West 351 404 36,000  Level Kansas City Center
Sun 05:44:37 PM 37.7506 -96.2011 270° West 347 399 36,000  Level Kansas City Center
Sun 05:45:39 PM 37.7508 -96.3236 270° West 349 402 36,000  Level Kansas City Center
Sun 05:46:42 PM 37.7511 -96.4464 270° West 350 403 36,000  Level Kansas City Center
Sun 05:47:44 PM 37.7514 -96.5944 270° West 351 404 36,000  Level Kansas City Center
Sun 05:48:46 PM 37.7506 -96.7194 270° West 355 409 36,000  Level Kansas City Center
Sun 05:49:48 PM 37.7500 -96.8456 270° West 358 412 36,000  Level Kansas City Center
Sun 05:50:50 PM 37.7497 -96.9706 270° West 358 412 36,000  Level Kansas City Center
Sun 05:51:52 PM 37.7489 -97.0969 270° West 360 414 36,000  Level Kansas City Center
Sun 05:52:54 PM 37.7481 -97.2244 270° West 362 417 36,000  Level Kansas City Center
Sun 05:53:56 PM 37.7475 -97.3747 270° West 358 412 36,000  Level Kansas City Center
Sun 05:54:58 PM 37.7456 -97.4950 269° West 359 413 36,000  Level Kansas City Center
Sun 05:56:00 PM 37.7467 -97.6208 271° West 359 413 36,000  Level Kansas City Center
Sun 05:57:02 PM 37.7561 -97.7472 275° West 361 415 36,000  Level Kansas City Center
Sun 05:58:04 PM 37.7664 -97.8994 275° West 362 417 36,000  Level Kansas City Center
Sun 06:00:08 PM 37.7828 -98.1403 275° West 361 415 36,000  Level Kansas City Center
Sun 06:01:10 PM 37.7906 -98.2675 274° West 361 415 36,000  Level Kansas City Center
Sun 06:02:12 PM 37.7989 -98.3950 275° West 363 418 36,000  Level Kansas City Center
Sun 06:03:14 PM 37.8089 -98.5489 275° West 365 420 36,000  Level Kansas City Center
Sun 06:04:16 PM 37.8158 -98.6761 274° West 364 419 36,000  Level Kansas City Center
Sun 06:05:18 PM 37.8239 -98.8028 275° West 362 417 36,000  Level Kansas City Center
Sun 06:06:20 PM 37.8300 -98.9264 274° West 356 410 36,000  Level Kansas City Center
Sun 06:07:22 PM 37.8369 -99.0514 274° West 356 410 36,000  Level Kansas City Center
Sun 06:08:24 PM 37.8439 -99.1783 274° West 359 413 36,000  Level Kansas City Center
Sun 06:09:26 PM 37.8528 -99.3281 274° West 358 412 36,000  Level Kansas City Center
Sun 06:10:28 PM 37.8597 -99.4547 274° West 361 415 36,000  Level Kansas City Center
Sun 06:11:30 PM 37.8658 -99.5761 274° West 364 419 36,000  Level Kansas City Center
Sun 06:12:32 PM 37.8733 -99.7194 274° West 366 421 36,000  Level Kansas City Center
Sun 06:13:34 PM 37.8775 -99.8433 272° West 368 423 36,000  Level Kansas City Center
Sun 06:14:36 PM 37.8311 -99.9772 246° West 375 432 36,000  Level Kansas City Center
Sun 06:15:38 PM 37.7844 -100.0911 243° Southwest 378 435 36,000  Level Kansas City Center
Sun 06:16:40 PM 37.7306 -100.2203 242° Southwest 373 429 36,000  Level Kansas City Center
Sun 06:17:42 PM 37.6858 -100.3319 243° Southwest 372 428 36,000  Level Kansas City Center
Sun 06:18:44 PM 37.6328 -100.4625 243° Southwest 373 429 36,000  Level Kansas City Center
Sun 06:19:46 PM 37.5869 -100.5811 244° Southwest 375 432 36,000  Level Kansas City Center
Sun 06:20:48 PM 37.5406 -100.7000 244° Southwest 378 435 36,000  Level Kansas City Center
Sun 06:21:50 PM 37.4969 -100.8292 247° West 387 445 36,000  Level Kansas City Center
Sun 06:22:51 PM 37.5056 -100.9522 275° West 380 437 36,000  Level Kansas City Center
Sun 06:23:53 PM 37.5189 -101.0847 277° West 381 438 36,000  Level Kansas City Center
Sun 06:24:55 PM 37.5342 -101.2347 277° West 382 440 36,000  Level Kansas City Center
Sun 06:25:57 PM 37.5467 -101.3617 277° West 381 438 36,000  Level Kansas City Center
Sun 06:26:59 PM 37.5617 -101.5089 277° West 379 436 36,000  Level Kansas City Center
Sun 06:28:01 PM 37.5750 -101.6361 278° West 382 440 36,000  Level Kansas City Center
Sun 06:29:03 PM 37.5886 -101.7844 277° West 381 438 36,000  Level Kansas City Center
Sun 06:30:05 PM 37.6006 -101.9106 277° West 379 436 36,000  Level Kansas City Center
Sun 06:31:07 PM 37.6136 -102.0567 276° West 377 434 36,000  Level Kansas City Center
Sun 06:32:09 PM 37.6247 -102.1814 276° West 376 433 36,000  Level Kansas City Center
Sun 06:33:15 PM 37.6381 -102.3300 277° West 380 437 36,000  Level Denver Center
Sun 06:34:17 PM 37.6522 -102.4769 277° West 380 437 36,000  Level Denver Center
Sun 06:35:19 PM 37.6622 -102.6114 275° West 379 436 36,000  Level Denver Center
Sun 06:36:20 PM 37.6733 -102.7378 276° West 379 436 36,000  Level Denver Center
Sun 06:37:22 PM 37.6842 -102.8642 276° West 378 435 36,000 194 Level Denver Center
Sun 06:38:24 PM 37.6975 -103.0125 277° West 383 441 36,400 488 Climbing Denver Center
Sun 06:39:25 PM 37.7078 -103.1364 276° West 372 428 37,000 293 Climbing Denver Center
Sun 06:40:27 PM 37.7194 -103.2828 276° West 375 432 37,000  Level Denver Center
Sun 06:41:29 PM 37.7297 -103.4092 276° West 378 435 37,000 48 Level Denver Center
Sun 06:42:31 PM 37.7419 -103.5578 276° West 383 441 37,100 484 Climbing Denver Center
Sun 06:43:33 PM 37.7528 -103.6831 276° West 378 435 38,000 439 Climbing Denver Center
Sun 06:44:34 PM 37.7642 -103.8286 276° West 376 433 38,000  Level Denver Center
Sun 06:45:36 PM 37.7739 -103.9533 276° West 377 434 38,000  Level Denver Center
Sun 06:46:37 PM 37.7833 -104.0989 275° West 377 434 38,000  Level Denver Center
Sun 06:47:39 PM 37.7936 -104.2250 276° West 379 436 38,000  Level Denver Center
Sun 06:48:41 PM 37.8039 -104.3739 275° West 382 440 38,000  Level Denver Center
Sun 06:49:43 PM 37.8125 -104.5014 275° West 382 440 38,000  Level Denver Center
Sun 06:50:44 PM 37.8219 -104.6275 275° West 378 435 38,000  Level Denver Center
Sun 06:51:46 PM 37.8319 -104.7767 275° West 382 440 38,000  Level Denver Center
Sun 06:52:48 PM 37.8414 -104.9019 275° West 377 434 38,000  Level Denver Center
Sun 06:53:50 PM 37.8508 -105.0500 275° West 377 434 38,000  Level Denver Center
Sun 06:54:51 PM 37.8586 -105.1764 274° West 378 435 38,000  Level Denver Center
Sun 06:55:53 PM 37.8683 -105.3242 275° West 378 435 38,000  Level Denver Center
Sun 06:56:55 PM 37.8764 -105.4525 275° West 380 437 38,000  Level Denver Center
Sun 06:57:56 PM 37.8844 -105.5808 275° West 383 441 38,000  Level Denver Center
Sun 06:58:58 PM 37.8933 -105.7308 274° West 383 441 38,000  Level Denver Center
Sun 07:00:00 PM 37.9006 -105.8583 274° West 381 438 38,000  Level Denver Center
Sun 07:01:02 PM 37.9106 -106.0094 275° West 386 444 38,000  Level Denver Center
Sun 07:02:03 PM 37.9175 -106.1392 274° West 386 444 38,000  Level Denver Center
Sun 07:03:05 PM 37.9250 -106.2908 274° West 387 445 38,000  Level Denver Center
Sun 07:04:07 PM 37.9325 -106.4200 274° West 386 444 38,000  Level Denver Center
Sun 07:05:08 PM 37.9403 -106.5542 274° West 386 444 38,000  Level Denver Center
Sun 07:06:10 PM 37.9469 -106.7044 273° West 385 443 38,000  Level Denver Center
Sun 07:07:12 PM 37.9550 -106.8319 275° West 381 438 38,000  Level Denver Center
Sun 07:08:13 PM 37.9614 -106.9833 273° West 385 443 38,000  Level Denver Center
Sun 07:09:15 PM 37.9675 -107.1103 274° West 380 437 38,000  Level Denver Center
Sun 07:10:17 PM 37.9753 -107.2439 274° West 383 441 38,000  Level Denver Center
Sun 07:11:18 PM 37.9819 -107.3944 273° West 383 441 38,000  Level Denver Center
Sun 07:12:20 PM 37.9875 -107.5231 273° West 382 440 38,000  Level Denver Center
Sun 07:13:22 PM 37.9933 -107.6522 273° West 383 441 38,000  Level Denver Center
Sun 07:14:23 PM 37.9992 -107.8044 273° West 388 447 38,000  Level Denver Center
Sun 07:15:25 PM 38.0050 -107.9319 273° West 382 440 38,000  Level Denver Center
Sun 07:16:27 PM 38.0117 -108.0833 273° West 383 441 38,000  Level Denver Center
Sun 07:17:28 PM 38.0164 -108.2108 273° West 382 440 38,000  Level Denver Center
Sun 07:18:30 PM 38.0219 -108.3600 273° West 379 436 38,000  Level Denver Center
Sun 07:19:31 PM 38.0269 -108.4881 273° West 379 436 38,000  Level Denver Center
Sun 07:20:33 PM 38.0328 -108.6342 273° West 376 433 38,000  Level Denver Center
Sun 07:21:35 PM 38.0364 -108.7589 272° West 373 429 38,000  Level Denver Center
Sun 07:22:36 PM 38.0411 -108.8875 273° West 375 432 38,000  Level Denver Center
Sun 07:23:50 PM 38.0469 -109.0358 273° West 377 434 38,000  Level Denver Center
Sun 07:24:52 PM 38.0514 -109.2083 272° West 383 441 38,000  Level Denver Center
Sun 07:25:54 PM 38.0547 -109.3347 272° West 378 435 38,000  Level Denver Center
Sun 07:26:55 PM 38.0589 -109.4642 272° West 381 438 38,000  Level Denver Center
Sun 07:27:57 PM 38.0628 -109.6142 272° West 381 438 38,000  Level Denver Center
Sun 07:28:59 PM 38.0658 -109.7439 272° West 382 440 38,000  Level Denver Center
Sun 07:30:00 PM 38.0706 -109.8964 272° West 386 444 38,000  Level Denver Center
Sun 07:31:02 PM 38.0733 -110.0297 272° West 392 451 38,000  Level Denver Center
Sun 07:32:04 PM 38.0764 -110.1586 272° West 386 444 38,000  Level Denver Center
Sun 07:33:05 PM 38.0806 -110.3106 272° West 387 445 38,000  Level Denver Center
Sun 07:34:07 PM 38.0819 -110.4408 271° West 386 444 38,000  Level Denver Center
Sun 07:35:09 PM 38.0856 -110.5914 272° West 383 441 38,000  Level Denver Center
Sun 07:36:10 PM 38.0886 -110.7192 272° West 379 436 38,000  Level Denver Center
Sun 07:37:12 PM 38.0897 -110.8458 271° West 375 432 38,000  Level Denver Center
Sun 07:38:14 PM 38.0931 -110.9964 272° West 374 430 38,000  Level Denver Center
Sun 07:39:16 PM 38.0942 -111.1283 271° West 375 432 38,000  Level Denver Center
Sun 07:40:17 PM 38.0961 -111.2625 271° West 381 438 38,000  Level Denver Center
Sun 07:41:19 PM 38.0986 -111.3947 271° West 377 434 38,000  Level Denver Center
Sun 07:42:21 PM 38.1003 -111.5292 271° West 381 438 38,000  Level Denver Center
Sun 07:43:39 PM 38.1011 -111.7153 270° West 379 436 38,000  Level Salt Lake Center
Sun 07:44:41 PM 38.1031 -111.8503 271° West 383 441 38,000  Level Salt Lake Center
Sun 07:45:42 PM 38.1044 -111.9842 271° West 382 440 38,000  Level Salt Lake Center
Sun 07:46:44 PM 38.1056 -112.1181 271° West 381 438 38,000  Level Salt Lake Center
Sun 07:47:46 PM 38.1061 -112.2547 270° West 386 444 38,000  Level Salt Lake Center
Sun 07:48:47 PM 38.1075 -112.4167 271° West 385 443 38,000  Level Salt Lake Center
Sun 07:49:49 PM 38.1078 -112.5497 270° West 382 440 38,000  Level Salt Lake Center
Sun 07:50:51 PM 38.1083 -112.6822 270° West 379 436 38,000  Level Salt Lake Center
Sun 07:51:52 PM 38.1072 -112.8158 269° West 380 437 38,000  Level Salt Lake Center
Sun 07:52:54 PM 38.1086 -112.9492 271° West 381 438 38,000  Level Salt Lake Center
Sun 07:53:56 PM 38.1072 -113.0831 269° West 382 440 38,000  Level Salt Lake Center
Sun 07:54:57 PM 38.1067 -113.2431 270° West 381 438 38,000  Level Salt Lake Center
Sun 07:55:59 PM 38.1058 -113.3767 270° West 381 438 38,000  Level Salt Lake Center
Sun 07:57:01 PM 38.1058 -113.5108 270° West 382 440 38,000  Level Salt Lake Center
Sun 07:58:02 PM 38.1044 -113.6447 269° West 381 438 38,000  Level Salt Lake Center
Sun 07:59:04 PM 38.1039 -113.7783 270° West 382 440 38,000  Level Salt Lake Center
Sun 08:00:05 PM 38.1028 -113.9136 269° West 383 441 38,000  Level Salt Lake Center
Sun 08:01:07 PM 38.1006 -114.0492 269° West 385 443 38,000  Level Salt Lake Center
Sun 08:02:08 PM 38.0994 -114.2131 270° West 388 447 38,000  Level Salt Lake Center
Sun 08:03:10 PM 38.0975 -114.3494 269° West 388 447 38,000  Level Salt Lake Center
Sun 08:04:11 PM 38.0958 -114.4864 269° West 389 448 38,000  Level Salt Lake Center
Sun 08:05:13 PM 38.0944 -114.6228 269° West 389 448 38,000  Level Salt Lake Center
Sun 08:06:14 PM 38.0925 -114.7617 269° West 393 452 38,000  Level Salt Lake Center
Sun 08:07:15 PM 38.0883 -114.8992 268° West 394 453 38,000  Level Salt Lake Center
Sun 08:08:17 PM 38.0867 -115.0500 269° West 397 457 38,000  Level Salt Lake Center
Sun 08:09:18 PM 38.0833 -115.1903 268° West 397 457 38,000  Level Salt Lake Center
Sun 08:10:20 PM 38.0797 -115.3303 268° West 398 458 38,000  Level Salt Lake Center
Sun 08:11:21 PM 38.0747 -115.4708 267° West 398 458 38,000  Level Salt Lake Center
Sun 08:12:22 PM 38.0725 -115.6114 269° West 398 458 38,000  Level Salt Lake Center
Sun 08:13:24 PM 38.0686 -115.7519 268° West 398 458 38,000  Level Salt Lake Center
Sun 08:14:25 PM 38.0647 -115.9203 268° West 399 459 38,000  Level Salt Lake Center
Sun 08:15:27 PM 38.0606 -116.0628 268° West 401 461 38,000  Level Salt Lake Center
Sun 08:16:28 PM 38.0564 -116.2031 268° West 400 460 38,000  Level Salt Lake Center
Sun 08:17:29 PM 38.0531 -116.3450 268° West 401 461 38,000  Level Salt Lake Center
Sun 08:18:31 PM 38.0489 -116.4872 268° West 402 463 38,000  Level Salt Lake Center
Sun 08:19:32 PM 38.0453 -116.6306 268° West 405 466 38,000  Level Salt Lake Center
Sun 08:20:34 PM 38.0406 -116.7733 268° West 405 466 38,000  Level Salt Lake Center
Sun 08:21:35 PM 38.0358 -116.9164 268° West 404 465 38,000  Level Salt Lake Center
Sun 08:22:37 PM 38.0306 -117.0600 267° West 404 465 38,000  Level Salt Lake Center
Sun 08:23:38 PM 38.0256 -117.2061 268° West 404 465 38,000  Level Salt Lake Center
Sun 08:24:39 PM 38.0192 -117.3536 267° West 409 471 38,000  Level Salt Lake Center
Sun 08:25:41 PM 38.0139 -117.4989 267° West 408 470 38,000  Level Salt Lake Center
Sun 08:26:42 PM 38.0083 -117.6431 267° West 409 471 38,000  Level Salt Lake Center
Sun 08:27:44 PM 37.9997 -117.8153 266° West 408 470 38,000  Level Salt Lake Center
Sun 08:28:45 PM 37.9842 -117.9586 262° West 410 472 38,000  Level Salt Lake Center
Sun 08:29:47 PM 37.9683 -118.1011 262° West 408 470 38,000  Level Salt Lake Center
Sun 08:30:56 PM 37.9492 -118.2725 262° West 408 470 38,000  Level Oakland Center
Sun 08:31:57 PM 37.9342 -118.4122 262° West 403 464 38,000  Level Oakland Center
Sun 08:32:59 PM 37.9181 -118.5531 262° West 403 464 38,000  Level Oakland Center
Sun 08:34:00 PM 37.9028 -118.6919 262° West 400 460 38,000  Level Oakland Center
Sun 08:35:01 PM 37.8881 -118.8328 262° West 401 461 38,000  Level Oakland Center
Sun 08:36:02 PM 37.8717 -118.9725 262° West 403 464 38,000  Level Oakland Center
Sun 08:37:03 PM 37.8556 -119.1150 262° West 406 467 38,000  Level Oakland Center
Sun 08:38:04 PM 37.8386 -119.2575 261° West 410 472 38,000  Level Oakland Center
Sun 08:39:05 PM 37.8228 -119.3989 262° West 408 470 38,000  Level Oakland Center
Sun 08:40:06 PM 37.8061 -119.5381 261° West 401 461 38,000  Level Oakland Center
Sun 08:41:07 PM 37.7900 -119.6783 262° West 402 463 38,000 -492 Level Oakland Center
Sun 08:42:08 PM 37.7717 -119.8186 261° West 403 464 37,000 -934 Descending Oakland Center
Sun 08:43:09 PM 37.7542 -119.9603 261° West 408 470 36,100 -1,122 Descending Oakland Center
Sun 08:44:11 PM 37.7358 -120.1061 261° West 416 479 34,700 -2,244 Descending Oakland Center
Sun 08:45:12 PM 37.7144 -120.2786 261° West 415 478 31,500 -2,656 Descending Oakland Center
Sun 08:46:13 PM 37.6972 -120.4189 261° West 407 468 29,300 -2,164 Descending Oakland Center
Sun 08:47:14 PM 37.6797 -120.5553 261° West 396 456 27,100 -2,262 Descending Oakland Center
Sun 08:48:15 PM 37.6619 -120.6947 261° West 387 445 24,700 -2,115 Descending Oakland Center
Sun 08:49:16 PM 37.6453 -120.8194 260° West 379 436 22,800 -1,869 Descending Oakland Center
Sun 08:50:17 PM 37.6297 -120.9425 261° West 359 413 20,900 -1,957 Descending Oakland Center
Sun 08:50:48 PM 37.6167 -121.0167 257° West 350 403 19,800 -1,906 Descending Northern Cal TRACON
Sun 08:51:42 PM 37.6167 -121.1167 270° West 341 392 18,200 -1,750 Descending Northern Cal TRACON
Sun 08:52:48 PM 37.6000 -121.2333 260° West 345 397 16,300 -1,900 Descending Northern Cal TRACON
Sun 08:53:42 PM 37.5833 -121.3500 260° West 344 396 14,400 -1,950 Descending Northern Cal TRACON
Sun 08:54:48 PM 37.5667 -121.4833 261° West 343 395 12,400 -1,650 Descending Northern Cal TRACON
Sun 08:55:42 PM 37.5500 -121.5833 258° West 332 382 11,100 -1,100 Descending Northern Cal TRACON
Sun 08:56:48 PM 37.5333 -121.7000 260° West 303 349 10,200 -1,150 Descending Northern Cal TRACON
Sun 08:57:42 PM 37.5167 -121.8000 258° West 298 343 8,800 -1,316 Descending Northern Cal TRACON
Sun 08:58:42 PM 37.5000 -121.8833 256° West 288 331 7,700 -1,250 Descending Northern Cal TRACON
Sun 08:59:42 PM 37.4667 -121.9833 247° West 284 327 6,300 -1,400 Descending Northern Cal TRACON
Sun 09:00:42 PM 37.5000 -122.0667 297° West 269 310 4,900 -1,300 Descending Northern Cal TRACON
Sun 09:01:42 PM 37.5167 -122.1500 284° West 256 295 3,700 -1,250 Descending Northern Cal TRACON
Sun 09:02:42 PM 37.5500 -122.2167 302° West 228 262 2,400 -1,150 Descending Northern Cal TRACON
Sun 09:03:42 PM 37.5833 -122.2833 302° West 187 215 1,400 -911 Descending Northern Cal TRACON
Sun 09:04:34 PM 37.5958 -122.3181 294° West 194 223 700 -637 Descending Oakland Center
Sun 09:05:35 PM 37.6172 -122.3689 298° West 175 201 200 -492 Descending Oakland Center
Sun 09:07:00 PM 37.6167 -122.3667 322° Northwest  Level FlightAware Approximate

Login

Don't have an account? Register now (free) for customized features, flight alerts, and more!